»·PEaware :: AAL486 KPHX-KORD

AAL486 :: KPHX-KORD

FLIGHT INFORMATION

Flight Status: Arrived
Operator:
American Airlines
More flights by this operator :: More flights under this callsign
Pilot: Tamas B. (15764)
Aircraft: BOEING 737-800
(B738)
More flights by this aircraft type
Origin: KPHX Phoenix Sky Harbor Intl
United States
Destination: KORD Chicago-O'Hare Intl
United States
More flights between these airports :: More routes between these airports
Route: LALUZ5 ABQ KK42Y KK51C IRK BENKY4
File this flight plan on PilotEdge
Remarks: PBN / A1B1C1D1S1S2 DOF / 180113 REG / N800NN EET / KZKC0117 KZAU0228 OPR / AAL PER / C RMK / TCAS SIMBRIEF
Altitude:
(Current/Filed)
39,000ft
Speed:
(Current/Filed)
451kts
Departed: 13-Jan-18 09:46 AM
Arrived: 13-Jan-18 01:10 PM
Distance/Time
Traveled:
1248nm/3:24
Distance/Time
To Go:
Arrived

Flight Plot

Page will automatically refresh every two minutes.

Flight plan parsing failed; only flown route is shown


Map Options




Map Legend


Flown Route
Filed Route
Departure Airport
Arrival Airport
Navaid (VOR, NDB)
Fix

Horizontal Profiles

Position Reports

Time Latitude Longitude Heading Altitude Ground
Speed
13-Jan-18 09:22 33.437987 -112.002475 106 1142ft 0kts
13-Jan-18 09:23 33.437987 -112.002475 106 1142ft 0kts
13-Jan-18 09:24 33.437987 -112.002475 106 1142ft 0kts
13-Jan-18 09:25 33.437987 -112.002475 106 1142ft 0kts
13-Jan-18 09:26 33.437987 -112.002475 106 1142ft 0kts
13-Jan-18 09:27 33.437987 -112.002475 106 1142ft 0kts
13-Jan-18 09:28 33.437987 -112.002475 106 1142ft 0kts
13-Jan-18 09:29 33.437987 -112.002475 106 1142ft 0kts
13-Jan-18 09:30 33.437987 -112.002475 106 1142ft 0kts
13-Jan-18 09:31 33.438023 -112.002765 72 1142ft 2kts
13-Jan-18 09:32 33.437699 -112.003016 0 1142ft 0kts
13-Jan-18 09:33 33.437700 -112.003016 0 1142ft 0kts
13-Jan-18 09:34 33.437700 -112.003016 0 1142ft 0kts
13-Jan-18 09:35 33.437700 -112.003016 0 1142ft 0kts
13-Jan-18 09:36 33.437700 -112.003016 0 1142ft 0kts
13-Jan-18 09:37 33.437700 -112.003016 0 1142ft 0kts
13-Jan-18 09:38 33.437700 -112.003016 0 1142ft 0kts
13-Jan-18 09:39 33.437700 -112.003016 0 1142ft 0kts
13-Jan-18 09:40 33.437701 -112.003016 0 1142ft 0kts
13-Jan-18 09:41 33.438937 -112.003589 236 1142ft 5kts
13-Jan-18 09:42 33.436145 -112.003799 180 1142ft 11kts
13-Jan-18 09:43 33.433535 -112.003814 179 1142ft 9kts
13-Jan-18 09:44 33.432886 -112.006547 270 1142ft 13kts
13-Jan-18 09:45 33.432322 -112.010149 228 1142ft 7kts
13-Jan-18 09:46 33.432160 -112.013519 270 1142ft 14kts
13-Jan-18 09:47 33.432165 -112.019011 270 1142ft 16kts
13-Jan-18 09:48 33.432166 -112.023101 269 1142ft 13kts
13-Jan-18 09:49 33.432080 -112.026672 237 1142ft 0kts
13-Jan-18 09:50 33.432025 -112.026758 229 1142ft 3kts
13-Jan-18 09:51 33.431078 -112.026554 95 1142ft 0kts
13-Jan-18 09:52 33.431268 -112.001196 88 1213ft 135kts
13-Jan-18 09:53 33.431708 -111.954340 83 2943ft 158kts
13-Jan-18 09:54 33.435963 -111.889086 83 4578ft 232kts
13-Jan-18 09:55 33.457588 -111.827363 61 6088ft 281kts
13-Jan-18 09:56 33.494226 -111.738709 62 11130ft 266kts
13-Jan-18 09:57 33.527618 -111.657804 61 14489ft 279kts
13-Jan-18 09:58 33.562554 -111.572944 60 17986ft 294kts
13-Jan-18 09:59 33.599296 -111.483502 60 21301ft 310kts
13-Jan-18 10:00 33.631464 -111.405031 60 23824ft 323kts
13-Jan-18 10:01 33.678280 -111.290503 60 27019ft 339kts
13-Jan-18 10:02 33.710006 -111.204989 62 29394ft 338kts
13-Jan-18 10:03 33.751946 -111.084685 62 32220ft 336kts
13-Jan-18 10:04 33.781815 -110.999217 61 34029ft 331kts
13-Jan-18 10:05 33.817074 -110.898577 60 35973ft 325kts
13-Jan-18 10:06 33.852004 -110.799166 60 37532ft 324kts
13-Jan-18 10:07 33.887226 -110.699207 61 38678ft 329kts
13-Jan-18 10:08 33.923437 -110.596627 61 39273ft 347kts
13-Jan-18 10:09 33.962827 -110.485305 61 39431ft 377kts
13-Jan-18 10:10 34.005852 -110.363991 62 39479ft 412kts
13-Jan-18 10:11 34.051800 -110.234751 62 39476ft 448kts
13-Jan-18 10:12 34.099499 -110.095932 63 39461ft 450kts
13-Jan-18 10:13 34.145808 -109.958890 63 39468ft 450kts
13-Jan-18 10:14 34.192854 -109.819948 63 39470ft 450kts
13-Jan-18 10:15 34.239893 -109.681457 63 39469ft 450kts
13-Jan-18 10:16 34.287316 -109.542298 63 39470ft 450kts
13-Jan-18 10:17 34.335094 -109.402561 63 39468ft 450kts
13-Jan-18 10:18 34.382085 -109.265575 63 39460ft 450kts
13-Jan-18 10:19 34.429485 -109.125924 67 39453ft 452kts
13-Jan-18 10:20 34.467509 -108.980669 68 39457ft 452kts
13-Jan-18 10:21 34.504891 -108.835997 67 39460ft 452kts
13-Jan-18 10:22 34.541926 -108.693157 67 39469ft 451kts
13-Jan-18 10:23 34.579581 -108.548562 67 39496ft 451kts
13-Jan-18 10:24 34.617300 -108.404358 67 39513ft 451kts
13-Jan-18 10:25 34.654206 -108.263891 67 39510ft 452kts
13-Jan-18 10:26 34.692396 -108.119161 67 39510ft 452kts
13-Jan-18 10:27 34.730808 -107.974232 67 39510ft 451kts
13-Jan-18 10:28 34.767735 -107.835502 67 39510ft 451kts
13-Jan-18 10:29 34.806384 -107.690934 67 39510ft 451kts
13-Jan-18 10:30 34.845333 -107.545877 66 39511ft 451kts
13-Jan-18 10:31 34.884326 -107.401293 66 39511ft 451kts
13-Jan-18 10:32 34.923378 -107.257113 66 39507ft 453kts
13-Jan-18 10:33 34.962776 -107.112291 66 39502ft 454kts
13-Jan-18 10:34 35.002537 -106.966719 65 39498ft 455kts
13-Jan-18 10:35 35.042593 -106.821011 62 39495ft 454kts
13-Jan-18 10:36 35.097313 -106.685952 56 39496ft 448kts
13-Jan-18 10:37 35.148958 -106.554266 56 39510ft 448kts
13-Jan-18 10:38 35.201100 -106.420324 56 39510ft 447kts
13-Jan-18 10:39 35.251290 -106.291587 57 39497ft 448kts
13-Jan-18 10:40 35.293387 -106.183836 57 39484ft 448kts
13-Jan-18 10:41 35.347107 -106.046690 56 39477ft 448kts
13-Jan-18 10:42 35.400784 -105.910032 56 39477ft 448kts
13-Jan-18 10:43 35.454743 -105.773032 56 39466ft 448kts
13-Jan-18 10:44 35.507791 -105.638708 56 39436ft 447kts
13-Jan-18 10:45 35.561756 -105.502434 56 39423ft 447kts
13-Jan-18 10:46 35.616148 -105.365454 56 39422ft 447kts
13-Jan-18 10:47 35.670039 -105.230091 56 39417ft 448kts
13-Jan-18 10:48 35.724533 -105.093575 56 39417ft 447kts
13-Jan-18 10:49 35.778964 -104.957485 54 39416ft 439kts
13-Jan-18 10:50 35.832330 -104.824510 53 39416ft 433kts
13-Jan-18 10:51 35.885451 -104.692580 53 39415ft 434kts
13-Jan-18 10:52 35.939275 -104.559215 53 39413ft 434kts
13-Jan-18 10:53 35.992554 -104.427532 53 39408ft 432kts
13-Jan-18 10:54 36.046053 -104.295635 54 39400ft 433kts
13-Jan-18 10:55 36.099655 -104.163807 53 39399ft 433kts
13-Jan-18 10:56 36.153357 -104.032123 53 39432ft 433kts
13-Jan-18 10:57 36.207635 -103.899381 53 39438ft 433kts
13-Jan-18 10:58 36.261612 -103.767722 53 39437ft 433kts
13-Jan-18 10:59 36.315884 -103.635690 53 39444ft 433kts
13-Jan-18 11:00 36.370410 -103.503385 53 39444ft 432kts
13-Jan-18 11:01 36.425161 -103.370882 52 39443ft 432kts
13-Jan-18 11:02 36.479060 -103.240709 53 39438ft 433kts
13-Jan-18 11:03 36.530201 -103.117490 52 39437ft 429kts
13-Jan-18 11:04 36.584162 -102.987837 51 39437ft 422kts
13-Jan-18 11:05 36.637738 -102.859551 51 39437ft 421kts
13-Jan-18 11:06 36.691399 -102.731351 51 39436ft 421kts
13-Jan-18 11:07 36.745427 -102.602588 50 39452ft 421kts
13-Jan-18 11:08 36.799041 -102.475116 50 39411ft 418kts
13-Jan-18 11:09 36.852442 -102.348507 51 39406ft 419kts
13-Jan-18 11:10 36.905479 -102.222915 51 39401ft 420kts
13-Jan-18 11:11 36.959937 -102.094400 51 39400ft 419kts
13-Jan-18 11:12 37.013972 -101.965286 52 39400ft 425kts
13-Jan-18 11:13 37.063771 -101.830418 53 39399ft 430kts
13-Jan-18 11:14 37.112833 -101.694510 53 39435ft 433kts
13-Jan-18 11:15 37.162025 -101.558251 53 39464ft 433kts
13-Jan-18 11:16 37.211521 -101.421524 53 39477ft 433kts
13-Jan-18 11:17 37.259016 -101.290665 53 39471ft 434kts
13-Jan-18 11:18 37.308480 -101.154770 53 39494ft 433kts
13-Jan-18 11:19 37.358314 -101.018326 53 39524ft 433kts
13-Jan-18 11:20 37.408009 -100.882584 52 39524ft 427kts
13-Jan-18 11:21 37.457253 -100.748567 51 39520ft 424kts
13-Jan-18 11:22 37.506585 -100.614772 51 39509ft 424kts
13-Jan-18 11:23 37.555102 -100.483530 51 39515ft 422kts
13-Jan-18 11:24 37.604246 -100.350988 51 39533ft 422kts
13-Jan-18 11:25 37.652536 -100.220985 52 39534ft 423kts
13-Jan-18 11:26 37.702235 -100.087702 51 39534ft 422kts
13-Jan-18 11:27 37.752013 -99.954622 51 39533ft 422kts
13-Jan-18 11:28 37.802148 -99.820984 51 39533ft 422kts
13-Jan-18 11:29 37.852185 -99.688003 51 39532ft 422kts
13-Jan-18 11:30 37.902267 -99.555288 51 39532ft 422kts
13-Jan-18 11:31 37.952428 -99.422756 51 39538ft 422kts
13-Jan-18 11:32 38.001201 -99.294187 51 39559ft 423kts
13-Jan-18 11:33 38.050551 -99.164440 51 39580ft 423kts
13-Jan-18 11:34 38.100869 -99.032664 51 39589ft 424kts
13-Jan-18 11:35 38.149836 -98.904768 52 39610ft 427kts
13-Jan-18 11:36 38.200940 -98.771620 52 39612ft 428kts
13-Jan-18 11:37 38.252720 -98.637126 51 39612ft 428kts
13-Jan-18 11:38 38.304601 -98.502769 51 39611ft 428kts
13-Jan-18 11:39 38.354636 -98.373510 51 39609ft 425kts
13-Jan-18 11:40 38.403682 -98.247159 52 39612ft 427kts
13-Jan-18 11:41 38.455380 -98.114389 52 39638ft 426kts
13-Jan-18 11:42 38.506965 -97.980578 55 39644ft 433kts
13-Jan-18 11:43 38.546818 -97.846820 58 39660ft 437kts
13-Jan-18 11:44 38.587425 -97.703267 58 39667ft 437kts
13-Jan-18 11:45 38.628053 -97.559343 58 39668ft 437kts
13-Jan-18 11:46 38.668580 -97.416327 57 39669ft 437kts
13-Jan-18 11:47 38.708664 -97.275414 58 39662ft 438kts
13-Jan-18 11:48 38.748412 -97.136235 58 39542ft 441kts
13-Jan-18 11:49 38.789741 -96.992277 59 39141ft 449kts
13-Jan-18 11:50 38.832134 -96.844972 60 38995ft 450kts
13-Jan-18 11:51 38.874558 -96.698202 60 39007ft 450kts
13-Jan-18 11:52 38.917150 -96.551475 59 39409ft 450kts
13-Jan-18 11:53 38.960013 -96.404501 59 39671ft 451kts
13-Jan-18 11:54 39.001203 -96.263763 58 39666ft 448kts
13-Jan-18 11:55 39.044063 -96.117913 58 39666ft 447kts
13-Jan-18 11:56 39.086071 -95.975639 58 39670ft 447kts
13-Jan-18 11:57 39.128757 -95.831636 58 39696ft 447kts
13-Jan-18 11:58 39.171820 -95.686912 58 39701ft 448kts
13-Jan-18 11:59 39.215135 -95.541934 57 39704ft 447kts
13-Jan-18 12:00 39.259085 -95.395442 57 39707ft 447kts
13-Jan-18 12:01 39.295369 -95.274915 58 39707ft 448kts
13-Jan-18 12:02 39.347182 -95.103513 58 39696ft 447kts
13-Jan-18 12:03 39.384846 -94.979557 58 39692ft 451kts
13-Jan-18 12:04 39.438279 -94.804335 60 39691ft 464kts
13-Jan-18 12:05 39.484355 -94.653684 60 39690ft 463kts
13-Jan-18 12:06 39.523181 -94.527345 59 39687ft 464kts
13-Jan-18 12:07 39.577396 -94.351654 59 39700ft 463kts
13-Jan-18 12:08 39.615103 -94.230033 60 39692ft 463kts
13-Jan-18 12:09 39.661446 -94.080977 60 39671ft 462kts
13-Jan-18 12:10 39.708664 -93.929825 59 39675ft 461kts
13-Jan-18 12:11 39.756453 -93.777433 59 39677ft 461kts
13-Jan-18 12:12 39.804987 -93.623314 59 39676ft 462kts
13-Jan-18 12:13 39.853522 -93.469802 59 39673ft 461kts
13-Jan-18 12:14 39.901435 -93.318921 59 39661ft 463kts
13-Jan-18 12:15 39.948145 -93.172383 59 39651ft 462kts
13-Jan-18 12:16 39.996627 -93.021034 60 39652ft 469kts
13-Jan-18 12:17 40.046518 -92.865796 61 39655ft 475kts
13-Jan-18 12:18 40.096724 -92.710066 61 39656ft 475kts
13-Jan-18 12:19 40.138355 -92.581774 59 39664ft 474kts
13-Jan-18 12:20 40.193098 -92.429753 58 39666ft 473kts
13-Jan-18 12:21 40.247327 -92.277939 59 39658ft 474kts
13-Jan-18 12:22 40.299973 -92.130778 59 39659ft 473kts
13-Jan-18 12:23 40.353956 -91.980356 59 39659ft 473kts
13-Jan-18 12:24 40.406992 -91.833090 58 39661ft 473kts
13-Jan-18 12:25 40.458664 -91.684102 60 39661ft 473kts
13-Jan-18 12:26 40.511105 -91.528628 59 39663ft 473kts
13-Jan-18 12:27 40.563703 -91.373505 59 39668ft 473kts
13-Jan-18 12:28 40.616055 -91.218602 60 39664ft 474kts
13-Jan-18 12:29 40.669406 -91.060192 61 39666ft 481kts
13-Jan-18 12:30 40.720883 -90.907478 62 39330ft 436kts
13-Jan-18 12:31 40.767776 -90.769080 61 37258ft 413kts
13-Jan-18 12:32 40.814947 -90.630448 61 35165ft 418kts
13-Jan-18 12:33 40.861593 -90.490952 62 33423ft 419kts
13-Jan-18 12:34 40.907930 -90.350495 62 31805ft 419kts
13-Jan-18 12:35 40.947056 -90.232307 62 30443ft 419kts
13-Jan-18 12:36 40.993328 -90.092824 62 28841ft 418kts
13-Jan-18 12:37 41.039742 -89.953307 62 27240ft 417kts
13-Jan-18 12:38 41.085622 -89.813481 62 25637ft 412kts
13-Jan-18 12:39 41.129089 -89.681010 61 24121ft 399kts
13-Jan-18 12:40 41.174019 -89.551507 56 22620ft 385kts
13-Jan-18 12:41 41.223849 -89.429755 56 21165ft 374kts
13-Jan-18 12:42 41.269371 -89.317751 57 19832ft 366kts
13-Jan-18 12:43 41.314628 -89.204921 57 18490ft 357kts
13-Jan-18 12:44 41.359654 -89.091295 57 16573ft 342kts
13-Jan-18 12:45 41.403627 -88.980569 57 15242ft 338kts
13-Jan-18 12:46 41.446941 -88.871694 57 13954ft 332kts
13-Jan-18 12:47 41.489005 -88.766197 57 12692ft 324kts
13-Jan-18 12:48 41.530163 -88.662594 57 12018ft 319kts
13-Jan-18 12:49 41.572885 -88.559787 43 12000ft 313kts
13-Jan-18 12:50 41.631749 -88.475107 42 12012ft 314kts
13-Jan-18 12:51 41.690104 -88.390234 42 12007ft 314kts
13-Jan-18 12:52 41.747932 -88.314649 36 11992ft 311kts
13-Jan-18 12:53 41.812556 -88.237545 36 11992ft 311kts
13-Jan-18 12:54 41.874502 -88.158415 54 11954ft 319kts
13-Jan-18 12:55 41.885003 -88.041961 87 11747ft 330kts
13-Jan-18 12:56 41.884448 -87.921241 86 11527ft 328kts
13-Jan-18 12:57 41.884351 -87.802146 86 11310ft 327kts
13-Jan-18 12:58 41.884128 -87.689632 87 11106ft 326kts
13-Jan-18 12:59 41.883864 -87.589715 86 10923ft 296kts
13-Jan-18 13:00 41.883611 -87.480485 89 10724ft 298kts
13-Jan-18 13:01 41.918112 -87.398159 31 9291ft 274kts
13-Jan-18 13:02 41.938414 -87.308828 90 9137ft 285kts
13-Jan-18 13:03 41.948952 -87.224215 38 8998ft 229kts
13-Jan-18 13:04 41.990709 -87.253401 273 9047ft 212kts
13-Jan-18 13:05 41.970421 -87.326331 251 8795ft 224kts
13-Jan-18 13:06 41.965702 -87.404110 279 7568ft 225kts
13-Jan-18 13:07 42.014742 -87.437732 335 7469ft 240kts
13-Jan-18 13:08 42.020523 -87.499263 232 7464ft 188kts
13-Jan-18 13:09 41.986489 -87.546664 231 7467ft 180kts
13-Jan-18 13:10 41.969567 -87.599075 274 7343ft 150kts
13-Jan-18 13:11 41.969284 -87.652477 274 7330ft 149kts
13-Jan-18 13:12 41.969036 -87.707842 273 5861ft 158kts
13-Jan-18 13:13 41.969071 -87.765564 272 4063ft 158kts
13-Jan-18 13:14 41.969090 -87.822262 270 2216ft 150kts
13-Jan-18 13:15 41.969266 -87.871134 269 1050ft 138kts
13-Jan-18 13:16 41.969076 -87.900760 278 674ft 4kts
13-Jan-18 13:17 41.969891 -87.901310 358 674ft 0kts
13-Jan-18 13:18 41.969891 -87.901310 358 674ft 0kts
13-Jan-18 13:19 41.969891 -87.901310 358 674ft 0kts
13-Jan-18 13:20 41.970716 -87.901328 358 674ft 8kts
13-Jan-18 13:21 41.972852 -87.901583 358 674ft 11kts
13-Jan-18 13:22 41.974690 -87.901843 322 674ft 5kts
13-Jan-18 13:23 41.975258 -87.902475 320 674ft 0kts
13-Jan-18 13:24 41.975258 -87.902475 320 674ft 0kts
13-Jan-18 13:25 41.975258 -87.902475 320 674ft 0kts
13-Jan-18 13:26 41.969095 -87.803206 271 2776ft 157kts
13-Jan-18 13:27 41.969125 -87.895281 272 674ft 108kts
13-Jan-18 13:28 41.969132 -87.895579 272 674ft 106kts
13-Jan-18 13:29 41.975258 -87.902475 320 674ft 0kts
13-Jan-18 13:30 41.975258 -87.902475 320 674ft 0kts

Navigation Log

Ident Type
Flight plan parsing failed, navigation log unavailable